Time;durP1;ratioP1;P1;durP2;ratioP2;P2;SDS_P1;SDS_P2;PMS_P1;PMS_P2;Temp;Humidity;BMP_temperature;BMP_pressure;BME280_temperature;BME280_humidity;BME280_pressure;Samples;Min_cycle;Max_cycle;Signal;HPM_P1;HPM_P2
2022/03/16 00:01:21;;;;;;;46.65;29.30;;;;;;;3.61;100.00;102244.91;5243391;28;20496;-68
2022/03/16 00:03:52;;;;;;;50.78;30.70;;;;;;;3.59;100.00;102255.47;5243196;28;20498;-68
2022/03/16 00:06:23;;;;;;;49.65;31.80;;;;;;;3.58;100.00;102258.16;5247098;28;20075;-68
2022/03/16 00:08:55;;;;;;;50.53;31.85;;;;;;;3.52;100.00;102256.53;5238203;28;20091;-68
2022/03/16 00:11:26;;;;;;;52.47;31.77;;;;;;;3.51;100.00;102254.81;5245789;28;20021;-68
2022/03/16 00:13:58;;;;;;;48.22;30.83;;;;;;;3.52;100.00;102253.88;5247225;28;20078;-68
2022/03/16 00:16:30;;;;;;;48.85;30.67;;;;;;;3.46;100.00;102257.53;5242989;28;20033;-68
2022/03/16 00:19:01;;;;;;;48.90;31.02;;;;;;;3.46;100.00;102259.31;5248406;28;20040;-68
2022/03/16 00:21:33;;;;;;;52.67;31.23;;;;;;;3.41;100.00;102258.56;5243287;28;20552;-68
2022/03/16 00:24:05;;;;;;;52.13;32.08;;;;;;;3.46;100.00;102254.91;5243401;28;20550;-68
2022/03/16 00:26:36;;;;;;;55.40;34.75;;;;;;;3.43;100.00;102260.28;5250194;28;20108;-68
2022/03/16 00:29:07;;;;;;;58.90;33.45;;;;;;;3.44;100.00;102255.84;5248253;28;20155;-68
2022/03/16 00:31:38;;;;;;;54.38;32.92;;;;;;;3.33;100.00;102267.50;5242833;28;20524;-68
2022/03/16 00:34:10;;;;;;;50.92;32.88;;;;;;;3.31;100.00;102271.09;5244178;28;20041;-68
2022/03/16 00:36:41;;;;;;;54.03;34.03;;;;;;;3.34;100.00;102268.41;5236100;28;20127;-68
2022/03/16 00:39:12;;;;;;;56.35;33.80;;;;;;;3.37;100.00;102260.38;5234138;28;20029;-68
2022/03/16 00:41:44;;;;;;;53.40;33.15;;;;;;;3.33;100.00;102249.03;5240034;28;20036;-68
2022/03/16 00:44:15;;;;;;;55.10;32.67;;;;;;;3.31;100.00;102263.19;5243943;28;20041;-68
2022/03/16 00:46:46;;;;;;;55.88;34.17;;;;;;;3.23;100.00;102260.72;5235943;28;20476;-68
2022/03/16 00:49:18;;;;;;;60.55;35.00;;;;;;;3.29;100.00;102257.94;5234547;28;20391;-68
2022/03/16 00:51:49;;;;;;;58.38;34.45;;;;;;;3.34;100.00;102242.03;5240718;28;20048;-68
2022/03/16 00:54:20;;;;;;;56.58;34.00;;;;;;;3.20;100.00;102258.13;5238292;28;20064;-68
2022/03/16 00:56:51;;;;;;;53.10;33.80;;;;;;;3.28;100.00;102261.50;5243597;28;20058;-68
2022/03/16 00:59:23;;;;;;;53.10;32.63;;;;;;;3.25;100.00;102253.63;5244231;28;20040;-68
2022/03/16 01:01:54;;;;;;;58.08;33.75;;;;;;;3.27;100.00;102248.34;5238560;28;20040;-68
2022/03/16 01:04:25;;;;;;;54.38;34.42;;;;;;;3.22;100.00;102251.09;5245446;28;20511;-69
2022/03/16 01:06:57;;;;;;;57.50;34.95;;;;;;;3.17;100.00;102252.97;5244136;28;20036;-68
2022/03/16 01:09:28;;;;;;;56.15;34.38;;;;;;;3.18;100.00;102253.81;5246948;28;20033;-68
2022/03/16 01:12:01;;;;;;;55.60;33.88;;;;;;;3.25;100.00;102242.22;5250981;28;20261;-68
2022/03/16 01:14:32;;;;;;;55.65;33.40;;;;;;;3.14;100.00;102245.09;5240250;28;20050;-68
2022/03/16 01:17:04;;;;;;;55.95;34.42;;;;;;;3.11;100.00;102239.91;5248705;28;20090;-68
2022/03/16 01:19:35;;;;;;;54.85;33.22;;;;;;;3.12;100.00;102241.63;5246298;28;20035;-68
2022/03/16 01:22:07;;;;;;;57.33;33.92;;;;;;;3.17;100.00;102242.41;5246686;28;20063;-68
2022/03/16 01:24:38;;;;;;;56.85;35.03;;;;;;;3.18;100.00;102244.13;5243607;28;20437;-68
2022/03/16 01:27:09;;;;;;;56.92;33.50;;;;;;;3.18;100.00;102248.53;5238771;28;20036;-68
2022/03/16 01:29:40;;;;;;;55.42;33.60;;;;;;;3.17;100.00;102231.84;5236892;28;20104;-68
2022/03/16 01:32:12;;;;;;;54.17;33.33;;;;;;;3.18;100.00;102240.63;5237048;28;20033;-68
2022/03/16 01:34:43;;;;;;;51.60;31.75;;;;;;;3.16;100.00;102245.06;5246097;28;20033;-68
2022/03/16 01:37:14;;;;;;;51.08;31.77;;;;;;;3.11;100.00;102243.41;5243300;28;20056;-68
2022/03/16 01:39:45;;;;;;;52.55;32.13;;;;;;;3.11;100.00;102243.41;5247913;28;20029;-68
2022/03/16 01:42:17;;;;;;;53.97;33.30;;;;;;;3.16;100.00;102226.63;5243396;28;20152;-68
2022/03/16 01:44:50;;;;;;;51.70;32.30;;;;;;;3.16;100.00;102226.63;5242835;28;20033;-68
2022/03/16 01:47:23;;;;;;;52.00;32.83;;;;;;;3.18;100.00;102224.81;5248652;28;20455;-68
2022/03/16 01:49:55;;;;;;;53.38;32.28;;;;;;;3.12;100.00;102207.34;5243242;28;20028;-68
2022/03/16 01:52:28;;;;;;;55.53;33.30;;;;;;;3.10;100.00;102204.75;5241524;28;20021;-68
2022/03/16 01:55:04;;;;;;;56.03;34.03;;;;;;;3.05;100.00;102205.75;5246479;28;20524;-68
2022/03/16 01:57:39;;;;;;;53.80;32.95;;;;;;;3.09;100.00;102207.44;5250743;28;20481;-69
2022/03/16 02:00:11;;;;;;;54.25;32.55;;;;;;;3.08;100.00;102211.81;5240753;28;20041;-68
2022/03/16 02:02:42;;;;;;;49.97;32.08;;;;;;;3.06;100.00;102203.09;5239667;28;20072;-68
2022/03/16 02:05:14;;;;;;;51.30;31.80;;;;;;;3.04;100.00;102198.75;5240816;28;20037;-68
2022/03/16 02:07:46;;;;;;;49.65;30.75;;;;;;;3.02;100.00;102190.03;5246281;28;20030;-68
2022/03/16 02:10:17;;;;;;;50.53;31.20;;;;;;;2.99;100.00;102208.53;5237787;28;20475;-68
2022/03/16 02:12:50;;;;;;;49.10;30.55;;;;;;;2.97;100.00;102198.03;5244057;28;20039;-68
2022/03/16 02:15:23;;;;;;;46.13;29.05;;;;;;;2.99;100.00;102185.66;5243099;28;20511;-68
2022/03/16 02:17:55;;;;;;;49.03;30.05;;;;;;;3.00;100.00;102192.69;5239604;28;20084;-68
2022/03/16 02:20:27;;;;;;;48.72;29.23;;;;;;;3.03;100.00;102183.84;5239733;28;20252;-68
2022/03/16 02:23:05;;;;;;;46.97;30.15;;;;;;;3.01;100.00;102193.53;5243445;28;20059;-68
2022/03/16 02:25:54;;;;;;;48.13;30.13;;;;;;;2.99;100.00;102187.44;5247996;28;20768;-68
2022/03/16 02:28:26;;;;;;;48.03;28.02;;;;;;;2.96;100.00;102184.91;5248464;28;20399;-66
2022/03/16 02:30:59;;;;;;;46.45;28.77;;;;;;;2.98;100.00;102193.63;5241164;28;20021;-66
2022/03/16 02:33:30;;;;;;;42.63;27.95;;;;;;;2.94;100.00;102193.69;5248942;28;20325;-66
2022/03/16 02:36:02;;;;;;;45.53;28.60;;;;;;;2.99;100.00;102190.09;5242441;28;20395;-65
2022/03/16 02:38:33;;;;;;;48.67;30.20;;;;;;;2.93;100.00;102197.25;5247735;28;20068;-65
2022/03/16 02:41:04;;;;;;;46.53;29.67;;;;;;;2.97;100.00;102198.03;5244871;28;20032;-65
2022/03/16 02:43:36;;;;;;;44.75;29.58;;;;;;;2.98;100.00;102204.19;5245251;28;20025;-66
2022/03/16 02:46:08;;;;;;;47.50;29.33;;;;;;;2.90;100.00;102197.31;5241136;28;20115;-65
2022/03/16 02:48:39;;;;;;;48.63;29.20;;;;;;;2.90;100.00;102186.75;5248335;28;20475;-68
2022/03/16 02:51:10;;;;;;;45.00;29.58;;;;;;;2.92;100.00;102194.66;5243456;28;20425;-67
2022/03/16 02:53:42;;;;;;;50.45;29.73;;;;;;;2.91;100.00;102182.34;5244967;28;20483;-67
2022/03/16 02:56:14;;;;;;;44.38;30.23;;;;;;;2.83;100.00;102166.72;5239445;28;20029;-66
2022/03/16 02:58:45;;;;;;;46.72;29.40;;;;;;;2.78;100.00;102173.88;5242020;28;20063;-66
2022/03/16 03:01:17;;;;;;;46.00;29.70;;;;;;;2.70;100.00;102170.53;5238609;28;20033;-66
2022/03/16 03:03:48;;;;;;;44.53;30.15;;;;;;;2.69;100.00;102164.41;5244763;28;20028;-66
2022/03/16 03:06:19;;;;;;;45.20;28.73;;;;;;;2.65;100.00;102165.38;5242594;28;20317;-66
2022/03/16 03:08:51;;;;;;;46.17;29.70;;;;;;;2.65;100.00;102165.38;5272225;28;20021;-66
2022/03/16 03:11:22;;;;;;;46.05;30.63;;;;;;;2.69;100.00;102166.16;5248477;28;20097;-67
2022/03/16 03:13:53;;;;;;;46.53;29.05;;;;;;;2.65;100.00;102169.78;5241127;28;20064;-66
2022/03/16 03:16:24;;;;;;;49.55;29.95;;;;;;;2.61;100.00;102171.63;5249039;28;20025;-66
2022/03/16 03:18:56;;;;;;;47.03;30.42;;;;;;;2.65;100.00;102173.28;5235403;28;20025;-66
2022/03/16 03:21:27;;;;;;;44.78;29.60;;;;;;;2.64;100.00;102174.16;5239905;28;20040;-66
2022/03/16 03:23:59;;;;;;;48.78;29.80;;;;;;;2.65;100.00;102181.19;5240425;28;20048;-66
2022/03/16 03:26:30;;;;;;;45.97;29.70;;;;;;;2.70;100.00;102179.31;5242535;28;20044;-66
2022/03/16 03:29:02;;;;;;;50.92;31.77;;;;;;;2.69;100.00;102182.84;5241702;28;20467;-66
2022/03/16 03:31:34;;;;;;;46.42;30.30;;;;;;;2.64;100.00;102179.44;5235313;28;20035;-66
2022/03/16 03:34:05;;;;;;;47.85;29.92;;;;;;;2.67;100.00;102184.66;5237826;28;20028;-66
2022/03/16 03:36:37;;;;;;;46.70;30.30;;;;;;;2.70;100.00;102184.59;5240879;28;20064;-66
2022/03/16 03:39:08;;;;;;;48.35;29.73;;;;;;;2.65;100.00;102182.97;5242374;28;20454;-66
2022/03/16 03:41:39;;;;;;;46.88;30.75;;;;;;;2.68;100.00;102177.59;5240333;28;20458;-66
2022/03/16 03:44:11;;;;;;;46.30;31.08;;;;;;;2.69;100.00;102181.97;5239535;28;20162;-66
2022/03/16 03:46:42;;;;;;;47.33;31.27;;;;;;;2.67;100.00;102179.38;5240586;28;20499;-66
2022/03/16 03:49:13;;;;;;;45.53;29.00;;;;;;;2.69;100.00;102176.72;5240302;28;20032;-66
2022/03/16 03:51:44;;;;;;;46.17;30.70;;;;;;;2.72;100.00;102172.25;5242188;28;20033;-66
2022/03/16 03:54:16;;;;;;;45.78;29.85;;;;;;;2.73;100.00;102175.75;5240456;28;20029;-67
2022/03/16 03:56:47;;;;;;;44.80;29.33;;;;;;;2.74;100.00;102172.19;5241844;28;20033;-66
2022/03/16 03:59:19;;;;;;;48.45;31.23;;;;;;;2.76;100.00;102175.66;5246083;28;20060;-66
2022/03/16 04:01:51;;;;;;;46.35;29.02;;;;;;;2.77;100.00;102181.81;5234790;28;20037;-66
2022/03/16 04:04:22;;;;;;;47.20;29.35;;;;;;;2.74;100.00;102180.09;5237982;28;20067;-66
2022/03/16 04:06:54;;;;;;;47.97;30.67;;;;;;;2.79;100.00;102172.97;5237941;28;20460;-68
2022/03/16 04:09:25;;;;;;;45.65;29.95;;;;;;;2.81;100.00;102175.56;5237027;28;20469;-68
2022/03/16 04:11:56;;;;;;;52.88;31.38;;;;;;;2.81;100.00;102163.25;5235060;28;20529;-66
2022/03/16 04:14:27;;;;;;;49.45;31.20;;;;;;;2.81;100.00;102155.34;5243265;28;20363;-66
2022/03/16 04:16:59;;;;;;;47.38;31.25;;;;;;;2.79;100.00;102159.78;5244379;28;20075;-66
2022/03/16 04:19:30;;;;;;;50.08;31.10;;;;;;;2.82;100.00;102161.47;5233371;28;20033;-66
2022/03/16 04:22:02;;;;;;;50.92;31.13;;;;;;;2.83;100.00;102164.06;5245047;28;20036;-66
2022/03/16 04:24:33;;;;;;;49.70;32.28;;;;;;;2.86;100.00;102166.66;5244843;28;20141;-66
2022/03/16 04:27:04;;;;;;;54.92;33.88;;;;;;;2.85;100.00;102164.03;5241134;28;20135;-66
2022/03/16 04:29:35;;;;;;;53.42;32.92;;;;;;;2.90;100.00;102163.03;5245729;28;20032;-66
2022/03/16 04:32:07;;;;;;;51.40;31.98;;;;;;;2.84;100.00;102168.47;5244881;28;20116;-66
2022/03/16 04:34:39;;;;;;;51.97;32.55;;;;;;;2.85;100.00;102156.13;5244473;28;20049;-66
2022/03/16 04:37:10;;;;;;;50.92;32.58;;;;;;;2.86;100.00;102166.66;5241765;28;20052;-66
2022/03/16 04:39:41;;;;;;;50.92;32.55;;;;;;;2.85;100.00;102161.41;5241850;28;20032;-66
2022/03/16 04:42:12;;;;;;;51.15;33.33;;;;;;;2.85;100.00;102166.69;5243388;28;20040;-66
2022/03/16 04:44:44;;;;;;;52.65;34.22;;;;;;;2.81;100.00;102165.88;5243517;28;20384;-66
2022/03/16 04:47:15;;;;;;;57.72;34.92;;;;;;;2.78;100.00;102165.97;5245756;28;20040;-66
2022/03/16 04:49:46;;;;;;;51.17;33.13;;;;;;;2.79;100.00;102167.69;5244702;28;20041;-66
2022/03/16 04:52:17;;;;;;;48.92;32.08;;;;;;;2.77;100.00;102158.94;5243248;28;20104;-67
2022/03/16 04:54:49;;;;;;;53.13;33.88;;;;;;;2.81;100.00;102162.38;5251359;28;20032;-67
2022/03/16 04:57:20;;;;;;;50.13;33.42;;;;;;;2.79;100.00;102159.78;5247466;28;20032;-66
2022/03/16 04:59:51;;;;;;;50.47;32.90;;;;;;;2.82;100.00;102159.72;5240435;28;20029;-66
2022/03/16 05:02:22;;;;;;;52.90;33.40;;;;;;;2.77;100.00;102173.91;5243426;28;20055;-66
2022/03/16 05:04:54;;;;;;;49.58;32.53;;;;;;;2.74;100.00;102175.72;5241241;28;20474;-66
2022/03/16 05:07:25;;;;;;;54.20;33.88;;;;;;;2.78;100.00;102170.34;5242726;28;20529;-66
2022/03/16 05:09:56;;;;;;;53.35;34.60;;;;;;;2.78;100.00;102175.63;5242363;28;20033;-66
2022/03/16 05:12:35;;;;;;;49.75;34.40;;;;;;;2.81;100.00;102180.84;5244373;28;20056;-66
2022/03/16 05:15:08;;;;;;;50.15;33.88;;;;;;;2.77;100.00;102171.28;5242472;28;20060;-66
2022/03/16 05:17:39;;;;;;;52.33;33.38;;;;;;;2.76;100.00;102157.19;5243427;28;20517;-66
2022/03/16 05:20:12;;;;;;;50.25;33.65;;;;;;;2.81;100.00;102157.97;5242724;28;20041;-66
2022/03/16 05:22:52;;;;;;;53.38;35.03;;;;;;;2.83;100.00;102156.16;5235135;28;20079;-66
2022/03/16 05:25:25;;;;;;;48.38;33.42;;;;;;;2.81;100.00;102154.47;5238457;28;20036;-66
2022/03/16 05:27:57;;;;;;;50.88;34.65;;;;;;;2.80;100.00;102143.09;5245727;28;20029;-66
2022/03/16 05:30:29;;;;;;;53.50;34.40;;;;;;;2.80;100.00;102151.00;5244539;28;20036;-66
2022/03/16 05:33:00;;;;;;;52.05;32.92;;;;;;;2.77;100.00;102145.78;5246255;28;20041;-66
2022/03/16 05:35:32;;;;;;;48.67;32.30;;;;;;;2.73;100.00;102154.66;5248419;28;20027;-66
2022/03/16 05:38:05;;;;;;;53.22;33.35;;;;;;;2.75;100.00;102153.72;5248477;28;20029;-66
2022/03/16 05:40:37;;;;;;;48.70;32.72;;;;;;;2.69;100.00;102148.59;5248303;28;20021;-67
2022/03/16 05:43:09;;;;;;;50.70;33.13;;;;;;;2.76;100.00;102151.94;5239401;28;20052;-66
2022/03/16 05:45:40;;;;;;;53.03;32.90;;;;;;;2.69;100.00;102161.75;5244190;28;20491;-66
2022/03/16 05:48:11;;;;;;;52.95;32.50;;;;;;;2.71;100.00;102151.19;5252450;28;20037;-66
2022/03/16 05:50:45;;;;;;;50.05;32.25;;;;;;;2.77;100.00;102158.09;5249741;28;20037;-66
2022/03/16 05:53:16;;;;;;;49.38;31.92;;;;;;;2.73;100.00;102166.06;5243203;28;20037;-66
2022/03/16 05:55:47;;;;;;;46.88;31.10;;;;;;;2.76;100.00;102173.00;5239474;28;20025;-66
2022/03/16 05:58:19;;;;;;;48.55;32.85;;;;;;;2.76;100.00;102175.66;5241396;28;20079;-67
2022/03/16 06:00:50;;;;;;;48.13;31.17;;;;;;;2.80;100.00;102173.81;5239734;28;20402;-66
2022/03/16 06:03:22;;;;;;;50.10;31.92;;;;;;;2.82;100.00;102172.91;5238883;28;20033;-66
2022/03/16 06:05:53;;;;;;;46.28;30.35;;;;;;;2.82;100.00;102170.25;5239209;28;20036;-67
2022/03/16 06:08:24;;;;;;;46.90;30.98;;;;;;;2.88;100.00;102182.44;5239376;28;20367;-67
2022/03/16 06:10:55;;;;;;;46.67;30.75;;;;;;;2.85;100.00;102172.81;5242727;28;20079;-66
2022/03/16 06:13:27;;;;;;;43.42;30.13;;;;;;;2.89;100.00;102181.53;5239200;28;20049;-67
2022/03/16 06:15:58;;;;;;;48.15;30.33;;;;;;;2.89;100.00;102185.00;5239010;28;20033;-66
2022/03/16 06:18:29;;;;;;;47.30;30.45;;;;;;;2.92;100.00;102181.47;5240553;28;20040;-67
2022/03/16 06:21:01;;;;;;;48.00;30.15;;;;;;;2.95;100.00;102181.38;5236341;28;20043;-67
2022/03/16 06:23:32;;;;;;;49.83;31.30;;;;;;;2.98;100.00;102188.38;5245611;28;20017;-67
2022/03/16 06:26:05;;;;;;;45.72;29.35;;;;;;;3.00;100.00;102179.50;5250482;28;20487;-67
2022/03/16 06:28:36;;;;;;;46.60;29.45;;;;;;;3.03;100.00;102181.19;5240189;28;20041;-67
2022/03/16 06:31:07;;;;;;;46.15;29.55;;;;;;;3.06;100.00;102186.41;5246678;28;20125;-67
2022/03/16 06:33:38;;;;;;;44.45;28.65;;;;;;;3.19;100.00;102185.22;5239233;28;20176;-67
2022/03/16 06:36:10;;;;;;;44.17;28.55;;;;;;;3.14;100.00;102181.81;5249554;28;20036;-67
2022/03/16 06:38:41;;;;;;;47.33;29.20;;;;;;;3.16;100.00;102187.06;5236812;28;20120;-67
2022/03/16 06:41:12;;;;;;;44.33;28.33;;;;;;;3.20;100.00;102189.56;5237305;28;20031;-67
2022/03/16 06:43:43;;;;;;;46.42;28.75;;;;;;;3.19;100.00;102190.50;5233908;28;20040;-67
2022/03/16 06:46:15;;;;;;;42.80;27.30;;;;;;;3.26;100.00;102178.00;5241787;28;20078;-67
2022/03/16 06:48:46;;;;;;;47.22;27.65;;;;;;;3.30;100.00;102177.91;5232763;28;20029;-67
2022/03/16 06:51:17;;;;;;;44.67;26.88;;;;;;;3.37;100.00;102172.47;5237246;28;20511;-67
2022/03/16 06:53:49;;;;;;;40.08;25.55;;;;;;;3.37;100.00;102164.56;5239892;28;20041;-67
2022/03/16 06:56:20;;;;;;;44.83;26.95;;;;;;;3.45;100.00;102158.19;5235599;28;20059;-67
2022/03/16 06:58:51;;;;;;;40.30;25.90;;;;;;;3.50;100.00;102169.47;5236816;28;20060;-67
2022/03/16 07:01:23;;;;;;;38.17;24.65;;;;;;;3.52;100.00;102150.97;5239717;28;20033;-67
2022/03/16 07:03:54;;;;;;;38.17;24.92;;;;;;;3.57;100.00;102153.47;5244310;28;20131;-67
2022/03/16 07:06:25;;;;;;;38.78;25.05;;;;;;;3.61;100.00;102150.75;5238588;28;20029;-67
2022/03/16 07:08:56;;;;;;;35.65;22.92;;;;;;;3.67;100.00;102147.94;5246737;28;20047;-67
2022/03/16 07:11:28;;;;;;;36.38;22.90;;;;;;;3.72;100.00;102153.06;5238797;28;20033;-67
2022/03/16 07:16:49;;;;;;;35.58;22.48;;;;;;;3.87;100.00;102143.88;5240043;28;20036;-67
2022/03/16 07:19:20;;;;;;;35.58;22.77;;;;;;;3.93;100.00;102149.88;5243371;28;20375;-67
2022/03/16 07:21:51;;;;;;;37.22;21.30;;;;;;;4.01;100.00;102152.31;5242273;28;20112;-67
2022/03/16 07:24:25;;;;;;;33.15;22.65;;;;;;;4.08;100.00;102156.47;5239041;28;20041;-67
2022/03/16 07:26:56;;;;;;;31.47;20.70;;;;;;;4.17;100.00;102150.09;5253812;28;20101;-67
2022/03/16 07:29:28;;;;;;;30.90;20.80;;;;;;;4.25;100.00;102136.66;5240052;28;20347;-67
2022/03/16 07:31:59;;;;;;;32.25;21.13;;;;;;;4.33;100.00;102129.34;5239510;28;20112;-67
2022/03/16 07:34:30;;;;;;;32.42;21.05;;;;;;;4.43;100.00;102138.75;5238330;28;20541;-68
2022/03/16 07:37:01;;;;;;;31.92;20.20;;;;;;;4.51;100.00;102134.09;5242993;28;20033;-67
2022/03/16 07:39:33;;;;;;;31.95;20.77;;;;;;;4.61;100.00;102124.13;5236663;28;20060;-67
2022/03/16 07:42:04;;;;;;;31.02;20.33;;;;;;;4.73;100.00;102117.56;5236343;28;20456;-67
2022/03/16 07:44:35;;;;;;;28.48;19.33;;;;;;;4.85;100.00;102132.19;5247904;28;20414;-67
2022/03/16 07:47:07;;;;;;;29.05;19.25;;;;;;;4.97;100.00;102123.00;5237963;28;20632;-67
2022/03/16 07:49:38;;;;;;;26.33;17.50;;;;;;;5.08;100.00;102132.31;5280934;28;20041;-67
2022/03/16 07:52:09;;;;;;;29.17;18.45;;;;;;;5.19;100.00;102124.00;5247142;28;20497;-68
2022/03/16 07:54:41;;;;;;;28.15;19.13;;;;;;;5.32;100.00;102123.63;5250548;28;20044;-67
2022/03/16 07:57:12;;;;;;;27.02;18.75;;;;;;;5.40;100.00;102127.72;5242267;28;20059;-67
2022/03/16 07:59:43;;;;;;;25.92;18.65;;;;;;;5.49;100.00;102137.13;5242707;28;20889;-67
2022/03/16 08:02:16;;;;;;;25.35;17.02;;;;;;;5.59;100.00;102135.88;5241853;28;20029;-67
2022/03/16 08:04:47;;;;;;;22.92;16.70;;;;;;;5.66;100.00;102145.34;5249795;28;20029;-67
2022/03/16 08:07:18;;;;;;;22.42;16.65;;;;;;;5.75;100.00;102135.34;5241075;28;20032;-68
2022/03/16 08:09:49;;;;;;;25.77;16.55;;;;;;;5.84;100.00;102133.22;5233508;28;20030;-67
2022/03/16 08:12:21;;;;;;;25.02;16.98;;;;;;;5.92;100.00;102130.31;5241969;28;20215;-67
2022/03/16 08:14:52;;;;;;;24.35;15.77;;;;;;;6.00;100.00;102138.91;5244030;28;20051;-67
2022/03/16 08:17:23;;;;;;;22.55;15.93;;;;;;;6.05;100.00;102134.28;5244202;28;20033;-67
2022/03/16 08:19:54;;;;;;;23.33;16.63;;;;;;;6.13;100.00;102127.84;5244066;28;20028;-67
2022/03/16 08:22:34;;;;;;;22.88;16.15;;;;;;;6.17;100.00;102111.75;5232702;28;20033;-68
2022/03/16 08:25:10;;;;;;;22.50;16.77;;;;;;;6.23;99.67;102124.78;5237888;28;20030;-68
2022/03/16 08:27:42;;;;;;;23.58;16.38;;;;;;;6.27;99.00;102131.69;5240960;28;20031;-68
2022/03/16 08:30:13;;;;;;;22.25;16.38;;;;;;;6.34;98.62;102128.81;5248882;28;20037;-67
2022/03/16 08:32:45;;;;;;;22.52;16.25;;;;;;;6.38;98.87;102128.63;5246921;28;20360;-67
2022/03/16 08:35:16;;;;;;;24.73;15.93;;;;;;;6.46;99.11;102120.38;5241576;28;20501;-67
2022/03/16 08:37:47;;;;;;;23.58;16.25;;;;;;;6.55;97.78;102122.69;5248494;28;20136;-68
2022/03/16 08:40:19;;;;;;;23.25;15.60;;;;;;;6.60;98.17;102123.38;5244006;28;20459;-67
2022/03/16 08:42:52;;;;;;;28.33;16.98;;;;;;;6.68;97.29;102133.66;5249552;28;20075;-67
2022/03/16 08:45:23;;;;;;;23.75;16.42;;;;;;;6.72;97.31;102122.00;5250285;28;20032;-67
2022/03/16 08:47:55;;;;;;;22.45;15.93;;;;;;;6.77;97.36;102132.44;5246263;28;20079;-67
2022/03/16 08:50:29;;;;;;;25.48;16.27;;;;;;;6.82;96.81;102136.63;5244413;28;20021;-68
2022/03/16 08:53:01;;;;;;;21.70;15.85;;;;;;;6.98;95.09;102142.19;5254145;28;20088;-68
2022/03/16 08:55:32;;;;;;;25.20;16.48;;;;;;;7.07;94.56;102138.28;5250632;28;20490;-68
2022/03/16 08:58:03;;;;;;;25.98;16.50;;;;;;;7.15;93.95;102145.94;5249327;28;20398;-68
2022/03/16 09:00:35;;;;;;;24.60;15.80;;;;;;;7.21;93.96;102145.69;5245703;28;20036;-68
2022/03/16 09:03:06;;;;;;;25.13;16.02;;;;;;;7.30;94.24;102149.75;5249593;28;20027;-68
2022/03/16 09:05:38;;;;;;;25.65;16.33;;;;;;;7.43;95.07;102156.28;5250849;28;20123;-68
2022/03/16 09:08:09;;;;;;;25.17;16.33;;;;;;;7.47;93.91;102153.41;5249215;28;20080;-68
2022/03/16 09:10:40;;;;;;;24.40;16.25;;;;;;;7.57;92.99;102161.00;5252570;28;20017;-68
2022/03/16 09:13:11;;;;;;;22.35;16.13;;;;;;;7.68;93.10;102160.56;5253809;28;20032;-67
2022/03/16 09:15:44;;;;;;;23.08;15.73;;;;;;;7.75;91.32;102143.41;5253255;28;20063;-68
2022/03/16 09:18:15;;;;;;;24.02;16.15;;;;;;;7.78;91.73;102143.28;5251435;28;20032;-68
2022/03/16 09:20:47;;;;;;;23.15;15.52;;;;;;;7.90;91.25;102145.41;5252658;28;20025;-68
2022/03/16 09:23:18;;;;;;;25.40;16.95;;;;;;;7.91;92.14;102146.25;5250192;28;20039;-68
2022/03/16 09:25:50;;;;;;;25.38;16.60;;;;;;;8.00;90.77;102135.22;5251396;28;20056;-68
2022/03/16 09:28:21;;;;;;;22.80;15.35;;;;;;;8.14;89.41;102139.91;5248267;28;20040;-68
2022/03/16 09:30:52;;;;;;;24.67;16.65;;;;;;;8.25;89.59;102127.00;5251641;28;20028;-68
2022/03/16 09:33:24;;;;;;;24.00;16.73;;;;;;;8.38;88.70;102136.13;5247477;28;20061;-68
2022/03/16 09:35:56;;;;;;;22.67;15.40;;;;;;;8.48;86.33;102130.41;5250637;28;20025;-68
2022/03/16 09:38:27;;;;;;;22.35;16.02;;;;;;;8.60;86.79;102124.50;5253415;28;20043;-68
2022/03/16 09:41:01;;;;;;;23.92;16.02;;;;;;;8.63;85.45;102135.00;5253826;28;20024;-68
2022/03/16 09:43:35;;;;;;;25.55;16.05;;;;;;;8.73;86.52;102138.94;5246324;28;20291;-68
2022/03/16 09:46:12;;;;;;;24.38;17.08;;;;;;;8.75;85.31;102126.44;5255062;28;20029;-69
2022/03/16 09:48:43;;;;;;;23.52;15.43;;;;;;;8.81;85.13;102126.13;5252126;28;20040;-68
2022/03/16 09:51:16;;;;;;;21.70;14.93;;;;;;;8.92;85.39;102120.28;5255217;28;20021;-68
2022/03/16 09:53:47;;;;;;;24.05;16.02;;;;;;;9.01;84.69;102124.28;5249838;28;20025;-68
2022/03/16 09:56:19;;;;;;;21.13;15.15;;;;;;;9.09;84.17;102111.47;5254332;28;20493;-68
2022/03/16 09:58:51;;;;;;;21.25;15.32;;;;;;;9.18;83.67;102121.63;5254599;28;20033;-68
2022/03/16 10:01:22;;;;;;;25.75;15.55;;;;;;;9.26;84.54;102123.91;5249094;28;20065;-68
2022/03/16 10:03:59;;;;;;;24.73;15.38;;;;;;;9.30;83.60;102112.19;5241994;28;20360;-68
2022/03/16 10:06:31;;;;;;;18.85;14.20;;;;;;;9.39;82.58;102118.84;5249211;28;20029;-68
2022/03/16 10:15:18;;;;;;;22.05;14.10;;;;;;;9.63;82.46;102108.72;5242587;28;20049;-68
2022/03/16 10:17:57;;;;;;;21.38;14.98;;;;;;;9.75;80.78;102108.06;5246553;28;20479;-68
2022/03/16 10:20:37;;;;;;;22.23;14.68;;;;;;;9.85;81.57;102105.78;5250813;28;20352;-68
2022/03/16 10:23:20;;;;;;;19.63;13.55;;;;;;;9.93;80.36;102092.03;5237867;28;20036;-69
2022/03/16 10:25:54;;;;;;;19.23;13.93;;;;;;;10.07;80.72;102105.50;5243998;28;20517;-68
2022/03/16 10:28:30;;;;;;;19.73;14.15;;;;;;;10.09;80.16;102098.28;5241288;28;20581;-68
2022/03/16 10:31:06;;;;;;;21.50;14.15;;;;;;;10.23;78.94;102096.66;5250131;28;20055;-68
2022/03/16 10:33:56;;;;;;;18.55;13.85;;;;;;;10.29;80.03;102093.66;5246380;28;20033;-69
2022/03/16 10:36:27;;;;;;;16.00;11.63;;;;;;;10.38;78.22;102093.19;5238692;28;20051;-69
2022/03/16 10:39:02;;;;;;;16.55;11.82;;;;;;;10.43;78.46;102093.75;5235574;28;20025;-69
2022/03/16 10:47:21;;;;;;;15.55;11.15;;;;;;;10.69;77.18;102092.28;5238866;28;20029;-69
2022/03/16 10:50:07;;;;;;;15.90;11.90;;;;;;;10.80;77.29;102078.34;5237294;28;20079;-68
2022/03/16 10:52:41;;;;;;;16.15;12.40;;;;;;;10.89;76.53;102076.94;5241595;28;20048;-69
2022/03/16 10:55:13;;;;;;;19.60;14.35;;;;;;;10.90;76.13;102070.66;5237716;28;20033;-69
2022/03/16 10:57:46;;;;;;;16.48;12.23;;;;;;;11.02;75.52;102085.09;5237535;28;20493;-69
2022/03/16 11:00:18;;;;;;;16.27;11.30;;;;;;;11.06;75.66;102092.84;5248496;28;20056;-69
2022/03/16 11:02:50;;;;;;;14.70;10.73;;;;;;;11.08;77.06;102088.25;5237541;28;20103;-69
2022/03/16 11:05:21;;;;;;;16.02;11.50;;;;;;;11.12;75.56;102083.59;5238611;28;20038;-69
2022/03/16 11:07:53;;;;;;;15.38;11.10;;;;;;;11.16;74.57;102075.34;5255468;28;20060;-69
2022/03/16 11:10:25;;;;;;;15.85;11.52;;;;;;;11.17;75.56;102063.69;5259345;28;20375;-69
2022/03/16 11:15:49;;;;;;;16.23;11.13;;;;;;;11.29;74.90;102079.94;5243045;28;20053;-69
2022/03/16 11:18:23;;;;;;;14.65;11.13;;;;;;;11.40;74.15;102074.81;5236944;28;20566;-69
2022/03/16 11:20:58;;;;;;;16.27;11.15;;;;;;;11.48;75.54;102085.88;5255723;28;20045;-69
2022/03/16 11:26:54;;;;;;;15.57;11.60;;;;;;;11.81;73.78;102097.28;5236408;28;20041;-69
2022/03/16 11:29:32;;;;;;;16.55;11.00;;;;;;;11.99;73.49;102088.16;5276161;28;20771;-69
2022/03/16 11:32:13;;;;;;;16.27;11.52;;;;;;;12.13;73.44;102087.28;5236949;28;20026;-69
2022/03/16 11:34:56;;;;;;;16.00;11.20;;;;;;;12.26;73.91;102096.25;5243673;28;20669;-69
2022/03/16 11:37:36;;;;;;;15.52;10.45;;;;;;;12.34;72.95;102091.28;5246818;28;20099;-69
2022/03/16 11:40:22;;;;;;;14.88;10.13;;;;;;;12.48;72.32;102086.84;5239822;28;20116;-69
2022/03/16 11:43:03;;;;;;;15.75;11.65;;;;;;;12.56;72.22;102087.22;5242927;28;20059;-69
2022/03/16 11:45:50;;;;;;;14.52;10.93;;;;;;;12.60;72.75;102091.44;5241642;28;20036;-69
2022/03/16 11:48:37;;;;;;;17.00;11.20;;;;;;;12.63;72.38;102088.53;5248316;28;20033;-69
2022/03/16 11:51:14;;;;;;;17.65;11.10;;;;;;;12.70;70.24;102094.38;5237093;28;20033;-69
2022/03/16 11:53:57;;;;;;;16.25;11.52;;;;;;;12.62;71.47;102086.84;5239353;28;20108;-69